createdAt,value
2018-01-13T00:00:48.130Z,1.31
2018-01-13T00:03:15.590Z,1.31
2018-01-13T00:05:43.117Z,1.27
2018-01-13T00:08:10.590Z,1.34
2018-01-13T00:10:38.083Z,1.37
2018-01-13T00:13:05.611Z,1.40
2018-01-13T00:15:33.082Z,1.26
2018-01-13T00:18:00.541Z,1.20
2018-01-13T00:20:28.046Z,1.22
2018-01-13T00:22:55.553Z,1.26
2018-01-13T00:25:23.019Z,1.24
2018-01-13T00:27:50.515Z,1.24
2018-01-13T00:30:18.161Z,1.20
2018-01-13T00:32:45.642Z,1.25
2018-01-13T00:35:13.117Z,1.29
2018-01-13T00:37:40.617Z,1.24
2018-01-13T00:40:08.100Z,1.18
2018-01-13T00:42:35.585Z,1.17
2018-01-13T00:45:03.918Z,1.24
2018-01-13T00:47:31.406Z,1.31
2018-01-13T00:49:58.894Z,1.30
2018-01-13T00:52:26.405Z,1.26
2018-01-13T00:54:53.890Z,1.22
2018-01-13T00:57:21.434Z,1.23
2018-01-13T00:59:48.951Z,1.16
2018-01-13T01:02:16.417Z,1.16
2018-01-13T01:04:43.912Z,1.25
2018-01-13T01:07:11.424Z,1.24
2018-01-13T01:09:39.196Z,1.22
2018-01-13T01:12:06.717Z,1.17
2018-01-13T01:14:34.383Z,1.15
2018-01-13T01:17:01.848Z,1.24
2018-01-13T01:19:29.325Z,1.27
2018-01-13T01:21:56.814Z,1.25
2018-01-13T01:24:24.296Z,1.29
2018-01-13T01:26:51.946Z,1.23
2018-01-13T01:29:19.522Z,1.27
2018-01-13T01:31:47.047Z,1.24
2018-01-13T01:34:14.722Z,1.28
2018-01-13T01:36:42.218Z,1.25
2018-01-13T01:39:09.712Z,1.22
2018-01-13T01:41:37.202Z,1.19
2018-01-13T01:44:04.690Z,1.22
2018-01-13T01:46:32.165Z,1.25
2018-01-13T01:48:59.662Z,1.24
2018-01-13T01:51:27.349Z,1.27
2018-01-13T01:53:54.842Z,1.26
2018-01-13T01:56:22.327Z,1.25
2018-01-13T01:58:49.830Z,1.25
2018-01-13T02:01:17.292Z,1.23
2018-01-13T02:03:44.810Z,1.06
2018-01-13T02:06:12.279Z,1.02
2018-01-13T02:08:39.746Z,1.09
2018-01-13T02:11:07.290Z,1.06
2018-01-13T02:13:34.769Z,1.10
2018-01-13T02:16:02.299Z,1.15
2018-01-13T02:18:29.806Z,1.20
2018-01-13T02:20:57.289Z,1.12
2018-01-13T02:23:24.766Z,1.02
2018-01-13T02:25:52.251Z,0.98
2018-01-13T02:28:19.730Z,0.95
2018-01-13T02:30:47.214Z,0.93
2018-01-13T02:33:14.726Z,0.98
2018-01-13T02:35:42.181Z,1.03
2018-01-13T02:38:09.667Z,1.08
2018-01-13T02:40:37.213Z,1.04
2018-01-13T02:43:04.678Z,1.08
2018-01-13T02:45:32.170Z,1.12
2018-01-13T02:47:59.674Z,1.01
2018-01-13T02:50:27.126Z,0.99
2018-01-13T02:52:54.692Z,0.97
2018-01-13T02:55:22.226Z,0.96
2018-01-13T02:57:49.714Z,0.98
2018-01-13T03:00:17.178Z,0.95
2018-01-13T03:02:44.674Z,0.91
2018-01-13T03:05:12.174Z,0.96
2018-01-13T03:07:39.677Z,1.02
2018-01-13T03:10:07.410Z,0.85
2018-01-13T03:12:34.909Z,0.86
2018-01-13T03:15:02.378Z,0.91
2018-01-13T03:17:29.877Z,0.97
2018-01-13T03:19:57.366Z,1.01
2018-01-13T03:22:24.858Z,0.97
2018-01-13T03:24:52.346Z,0.86
2018-01-13T03:27:19.801Z,0.82
2018-01-13T03:29:47.353Z,0.76
2018-01-13T03:32:14.941Z,0.77
2018-01-13T03:34:42.441Z,0.82
2018-01-13T03:37:09.914Z,0.89
2018-01-13T03:39:37.419Z,0.93
2018-01-13T03:42:04.928Z,1.01
2018-01-13T03:44:32.433Z,0.96
2018-01-13T03:46:59.915Z,0.97
2018-01-13T03:49:27.414Z,1.01
2018-01-13T03:51:54.880Z,0.97
2018-01-13T03:54:22.366Z,0.99
2018-01-13T03:56:49.869Z,1.01
2018-01-13T03:59:17.364Z,1.01
2018-01-13T04:01:44.869Z,0.95
2018-01-13T04:04:12.352Z,0.93
2018-01-13T04:06:39.843Z,0.93
2018-01-13T04:09:07.353Z,0.95
2018-01-13T04:11:34.841Z,0.92
2018-01-13T04:14:02.324Z,0.83
2018-01-13T04:16:29.849Z,0.83
2018-01-13T04:18:57.325Z,0.83
2018-01-13T04:21:24.832Z,0.84
2018-01-13T04:23:52.322Z,0.83
2018-01-13T04:26:19.778Z,0.70
2018-01-13T04:31:21.582Z,0.77
2018-01-13T04:33:49.064Z,0.83
2018-01-13T04:36:16.566Z,0.89
2018-01-13T04:38:44.057Z,0.89
2018-01-13T04:41:11.541Z,0.90
2018-01-13T04:43:39.047Z,0.86
2018-01-13T04:46:06.567Z,0.82
2018-01-13T04:48:34.046Z,0.84
2018-01-13T04:51:01.544Z,0.83
2018-01-13T04:53:28.998Z,0.86
2018-01-13T04:55:56.477Z,0.76
2018-01-13T04:58:23.971Z,0.79
2018-01-13T05:00:51.472Z,0.81
2018-01-13T05:03:18.949Z,0.84
2018-01-13T05:05:46.465Z,0.85
2018-01-13T05:08:13.950Z,0.90
2018-01-13T05:10:41.414Z,0.98
2018-01-13T05:13:08.957Z,0.97
2018-01-13T05:15:36.439Z,0.90
2018-01-13T05:18:03.962Z,0.84
2018-01-13T05:20:31.481Z,0.73
2018-01-13T05:22:58.962Z,0.75
2018-01-13T05:25:26.575Z,0.78
2018-01-13T05:27:54.062Z,0.77
2018-01-13T05:30:21.520Z,0.87
2018-01-13T05:32:49.102Z,0.87
2018-01-13T05:35:16.578Z,0.84
2018-01-13T05:37:44.081Z,0.74
2018-01-13T05:40:11.536Z,0.70
2018-01-13T05:42:39.050Z,0.74
2018-01-13T05:45:06.514Z,0.78
2018-01-13T05:47:33.978Z,0.87
2018-01-13T05:50:01.472Z,0.83
2018-01-13T05:52:28.961Z,0.78
2018-01-13T05:54:56.858Z,0.77
2018-01-13T05:57:24.348Z,0.82
2018-01-13T05:59:51.810Z,0.83
2018-01-13T06:02:19.286Z,0.89
2018-01-13T06:04:46.789Z,0.80
2018-01-13T06:07:14.269Z,0.79
2018-01-13T06:09:41.763Z,0.78
2018-01-13T06:12:09.258Z,0.72
2018-01-13T06:14:36.752Z,0.80
2018-01-13T06:17:04.237Z,0.82
2018-01-13T06:19:31.737Z,0.84
2018-01-13T06:21:59.270Z,0.84
2018-01-13T06:24:26.750Z,0.85
2018-01-13T06:26:54.234Z,0.89
2018-01-13T06:29:21.722Z,0.88
2018-01-13T06:31:49.218Z,0.81
2018-01-13T06:34:16.720Z,0.72
2018-01-13T06:36:44.201Z,0.69
2018-01-13T06:39:11.720Z,0.79
2018-01-13T06:41:39.243Z,0.74
2018-01-13T06:44:06.720Z,0.70
2018-01-13T06:46:34.170Z,0.64
2018-01-13T06:49:01.659Z,0.61
2018-01-13T06:51:29.114Z,0.66
2018-01-13T06:53:56.625Z,0.71
2018-01-13T06:56:24.140Z,0.76
2018-01-13T06:58:51.630Z,0.72
2018-01-13T07:01:19.097Z,0.69
2018-01-13T07:03:46.665Z,0.68
2018-01-13T07:06:14.141Z,0.60
2018-01-13T07:08:41.638Z,0.57
2018-01-13T07:11:09.141Z,0.59
2018-01-13T07:13:36.627Z,0.63
2018-01-13T07:16:04.114Z,0.69
2018-01-13T07:18:31.589Z,0.80
2018-01-13T07:20:59.043Z,0.78
2018-01-13T07:23:26.657Z,0.67
2018-01-13T07:25:54.204Z,0.65
2018-01-13T07:28:21.670Z,0.70
2018-01-13T07:30:49.171Z,0.72
2018-01-13T07:33:16.647Z,0.78
2018-01-13T07:35:44.223Z,0.76
2018-01-13T07:38:11.970Z,0.80
2018-01-13T07:40:39.430Z,0.65
2018-01-13T07:43:06.887Z,0.61
2018-01-13T07:45:34.375Z,0.61
2018-01-13T07:48:01.864Z,0.66
2018-01-13T07:50:29.365Z,0.66
2018-01-13T07:52:56.918Z,0.66
2018-01-13T07:55:24.397Z,0.68
2018-01-13T07:57:52.039Z,0.66
2018-01-13T08:00:19.537Z,0.61
2018-01-13T08:02:46.998Z,0.62
2018-01-13T08:05:14.485Z,0.70
2018-01-13T08:07:42.053Z,0.66
2018-01-13T08:10:09.541Z,0.59
2018-01-13T08:12:37.066Z,0.54
2018-01-13T08:15:04.552Z,0.63
2018-01-13T08:17:32.046Z,0.61
2018-01-13T08:19:59.559Z,0.51
2018-01-13T08:22:27.082Z,0.53
2018-01-13T08:24:54.854Z,0.50
2018-01-13T08:27:22.397Z,0.53
2018-01-13T08:29:49.858Z,0.65
2018-01-13T08:32:17.323Z,0.69
2018-01-13T08:34:44.931Z,0.56
2018-01-13T08:37:12.409Z,0.56
2018-01-13T08:39:39.906Z,0.55
2018-01-13T08:42:07.782Z,0.53
2018-01-13T08:44:35.317Z,0.48
2018-01-13T08:47:02.808Z,0.36
2018-01-13T08:49:30.296Z,0.30
2018-01-13T08:51:57.749Z,0.25
2018-01-13T08:54:25.239Z,0.28
2018-01-13T08:56:53.026Z,0.35
2018-01-13T08:59:20.527Z,0.42
2018-01-13T09:01:52.373Z,0.35
2018-01-13T09:04:20.110Z,0.37
2018-01-13T09:06:47.660Z,0.43
2018-01-13T09:09:15.149Z,0.42
2018-01-13T09:11:42.675Z,0.43
2018-01-13T09:14:10.157Z,0.44
2018-01-13T09:16:37.618Z,0.26
2018-01-13T09:19:05.111Z,0.33
2018-01-13T09:21:32.594Z,0.31
2018-01-13T09:24:00.072Z,0.20
2018-01-13T09:26:27.850Z,0.23
2018-01-13T09:28:56.060Z,0.51
2018-01-13T09:31:23.571Z,0.73
2018-01-13T09:33:51.075Z,1.08
2018-01-13T09:36:18.545Z,1.55
2018-01-13T09:38:46.025Z,1.46
2018-01-13T09:41:13.539Z,1.26
2018-01-13T09:43:41.028Z,0.90
2018-01-13T09:46:09.440Z,0.69
2018-01-13T09:48:36.938Z,0.66
2018-01-13T09:51:04.457Z,0.77
2018-01-13T09:53:31.959Z,0.64
2018-01-13T09:55:59.427Z,0.68
2018-01-13T09:58:26.962Z,0.84
2018-01-13T10:00:54.445Z,0.82
2018-01-13T10:03:21.919Z,0.79
2018-01-13T10:05:49.510Z,0.81
2018-01-13T10:08:16.972Z,0.78
2018-01-13T10:10:46.064Z,0.84
2018-01-13T10:13:13.598Z,0.91
2018-01-13T10:15:41.081Z,0.93
2018-01-13T10:18:08.567Z,0.84
2018-01-13T10:23:10.750Z,0.68
2018-01-13T10:25:38.257Z,0.59
2018-01-13T10:28:05.744Z,0.77
2018-01-13T10:30:33.223Z,0.82
2018-01-13T10:33:00.710Z,0.83
2018-01-13T10:35:28.177Z,0.76
2018-01-13T10:37:55.670Z,0.73
2018-01-13T10:40:23.178Z,0.69
2018-01-13T10:42:50.647Z,0.54
2018-01-13T10:45:18.106Z,0.43
2018-01-13T10:47:45.796Z,0.58
2018-01-13T10:50:13.357Z,0.71
2018-01-13T10:52:40.863Z,0.60
2018-01-13T10:55:08.401Z,0.48
2018-01-13T10:57:35.890Z,0.51
2018-01-13T11:00:03.370Z,0.55
2018-01-13T11:02:30.950Z,0.50
2018-01-13T11:04:58.524Z,0.55
2018-01-13T11:07:25.982Z,0.48
2018-01-13T11:09:53.522Z,0.37
2018-01-13T11:12:20.990Z,0.48
2018-01-13T11:14:48.510Z,0.49
2018-01-13T11:17:16.086Z,0.60
2018-01-13T11:19:43.574Z,0.69
2018-01-13T11:22:11.070Z,0.70
2018-01-13T11:24:38.595Z,0.78
2018-01-13T11:27:06.072Z,0.72
2018-01-13T11:29:33.559Z,0.59
2018-01-13T11:32:01.038Z,0.60
2018-01-13T11:34:28.507Z,0.45
2018-01-13T11:36:56.189Z,0.46
2018-01-13T11:39:23.665Z,0.70
2018-01-13T11:41:51.186Z,0.88
2018-01-13T11:44:18.694Z,1.17
2018-01-13T11:46:46.187Z,0.93
2018-01-13T11:49:13.691Z,0.63
2018-01-13T11:51:41.453Z,0.58
2018-01-13T11:54:08.924Z,0.57
2018-01-13T11:56:36.450Z,0.65
2018-01-13T11:59:04.039Z,0.61
2018-01-13T12:01:31.534Z,0.48
2018-01-13T12:03:58.990Z,0.53
2018-01-13T12:06:26.498Z,0.62
2018-01-13T12:08:53.962Z,0.69
2018-01-13T12:11:21.469Z,0.64
2018-01-13T12:13:48.993Z,0.61
2018-01-13T12:16:16.485Z,0.64
2018-01-13T12:18:43.980Z,0.68
2018-01-13T12:21:11.503Z,0.64
2018-01-13T12:23:39.013Z,0.56
2018-01-13T12:26:06.482Z,0.56
2018-01-13T12:28:33.974Z,0.49
2018-01-13T12:31:01.478Z,0.45
2018-01-13T12:33:28.941Z,0.40
2018-01-13T12:35:56.430Z,0.32
2018-01-13T12:38:23.933Z,0.37
2018-01-13T12:40:51.930Z,0.30
2018-01-13T12:43:19.427Z,0.33
2018-01-13T12:45:46.900Z,0.42
2018-01-13T12:48:14.648Z,0.52
2018-01-13T12:50:42.142Z,0.57
2018-01-13T12:53:09.664Z,0.60
2018-01-13T12:55:37.178Z,0.58
2018-01-13T12:58:04.854Z,0.59
2018-01-13T13:00:32.314Z,0.45
2018-01-13T13:02:59.786Z,0.48
2018-01-13T13:05:27.299Z,0.55
2018-01-13T13:07:54.807Z,0.64
2018-01-13T13:10:22.279Z,0.63
2018-01-13T13:12:49.797Z,0.49
2018-01-13T13:15:17.354Z,0.44
2018-01-13T13:17:44.840Z,0.38
2018-01-13T13:20:12.316Z,0.39
2018-01-13T13:22:39.794Z,0.42
2018-01-13T13:25:07.254Z,0.52
2018-01-13T13:27:34.747Z,0.57
2018-01-13T13:30:02.259Z,0.55
2018-01-13T13:32:29.873Z,0.51
2018-01-13T13:34:57.380Z,0.45
2018-01-13T13:37:24.922Z,0.52
2018-01-13T13:39:52.407Z,0.66
2018-01-13T13:42:19.894Z,0.73
2018-01-13T13:44:47.382Z,0.72
2018-01-13T13:47:14.859Z,0.62
2018-01-13T13:49:42.323Z,0.64
2018-01-13T13:52:10.064Z,0.63
2018-01-13T13:54:37.558Z,0.64
2018-01-13T13:57:05.063Z,0.70
2018-01-13T13:59:32.614Z,0.69
2018-01-13T14:02:00.105Z,0.67
2018-01-13T14:04:27.602Z,0.69
2018-01-13T14:06:55.149Z,0.74
2018-01-13T14:09:22.606Z,0.63
2018-01-13T14:11:50.107Z,0.71
2018-01-13T14:14:17.603Z,0.80
2018-01-13T14:16:45.087Z,0.84
2018-01-13T14:19:12.552Z,0.87
2018-01-13T14:21:40.049Z,0.75
2018-01-13T14:24:07.722Z,0.78
2018-01-13T14:26:35.191Z,0.75
2018-01-13T14:29:02.721Z,0.73
2018-01-13T14:31:30.246Z,0.82
2018-01-13T14:33:57.803Z,0.78
2018-01-13T14:36:25.315Z,0.67
2018-01-13T14:38:52.799Z,0.72
2018-01-13T14:41:20.282Z,0.68
2018-01-13T14:43:47.814Z,0.66
2018-01-13T14:46:15.313Z,0.74
2018-01-13T14:48:42.806Z,0.77
2018-01-13T14:51:10.318Z,0.75
2018-01-13T14:53:37.791Z,0.75
2018-01-13T14:56:05.290Z,0.68
2018-01-13T14:58:32.775Z,0.66
2018-01-13T15:01:00.267Z,0.72
2018-01-13T15:03:27.734Z,0.76
2018-01-13T15:05:55.219Z,0.68
2018-01-13T15:08:22.700Z,0.64
2018-01-13T15:10:50.196Z,0.63
2018-01-13T15:13:17.658Z,0.69
2018-01-13T15:15:45.126Z,0.74
2018-01-13T15:18:12.707Z,0.80
2018-01-13T15:20:40.183Z,0.70
2018-01-13T15:23:07.698Z,0.70
2018-01-13T15:25:35.181Z,0.69
2018-01-13T15:28:02.673Z,0.68
2018-01-13T15:30:30.192Z,0.67
2018-01-13T15:32:57.706Z,0.70
2018-01-13T15:35:25.183Z,0.62
2018-01-13T15:37:52.686Z,0.58
2018-01-13T15:40:20.175Z,0.60
2018-01-13T15:42:47.664Z,0.65
2018-01-13T15:45:15.146Z,0.73
2018-01-13T15:47:42.645Z,0.79
2018-01-13T15:50:10.134Z,0.76
2018-01-13T15:52:37.633Z,0.70
2018-01-13T15:55:05.353Z,0.68
2018-01-13T15:57:32.839Z,0.64
2018-01-13T16:00:00.334Z,0.59
2018-01-13T16:02:27.850Z,0.62
2018-01-13T16:04:55.360Z,0.66
2018-01-13T16:07:22.930Z,0.66
2018-01-13T16:09:50.430Z,0.67
2018-01-13T16:12:17.891Z,0.71
2018-01-13T16:14:45.359Z,0.72
2018-01-13T16:17:12.870Z,0.73
2018-01-13T16:19:40.345Z,0.76
2018-01-13T16:22:07.861Z,0.81
2018-01-13T16:24:35.358Z,0.85
2018-01-13T16:27:02.864Z,0.92
2018-01-13T16:29:30.370Z,0.87
2018-01-13T16:31:57.845Z,0.81
2018-01-13T16:34:25.316Z,0.79
2018-01-13T16:36:52.818Z,0.77
2018-01-13T16:39:20.305Z,0.80
2018-01-13T16:41:47.815Z,0.85
2018-01-13T16:44:15.324Z,0.76
2018-01-13T16:46:43.831Z,0.72
2018-01-13T16:49:11.313Z,0.66
2018-01-13T16:51:38.820Z,0.66
2018-01-13T16:54:06.308Z,0.66
2018-01-13T16:56:33.788Z,0.56
2018-01-13T16:59:01.314Z,0.54
2018-01-13T17:01:28.850Z,0.54
2018-01-13T17:03:56.378Z,0.50
2018-01-13T17:06:23.858Z,0.59
2018-01-13T17:08:51.360Z,0.65
2018-01-13T17:11:18.858Z,0.78
2018-01-13T17:13:46.377Z,0.77
2018-01-13T17:16:13.909Z,0.73
2018-01-13T17:18:41.386Z,0.68
2018-01-13T17:21:08.946Z,0.70
2018-01-13T17:23:36.419Z,0.72
2018-01-13T17:26:03.898Z,0.68
2018-01-13T17:28:31.398Z,0.64
2018-01-13T17:30:58.902Z,0.64
2018-01-13T17:33:26.418Z,0.64
2018-01-13T17:35:53.930Z,0.61
2018-01-13T17:38:21.431Z,0.59
2018-01-13T17:40:48.943Z,0.60
2018-01-13T17:43:16.418Z,0.58
2018-01-13T17:45:43.919Z,0.60
2018-01-13T17:48:11.462Z,0.56
2018-01-13T17:50:39.099Z,0.49
2018-01-13T17:53:06.595Z,0.53
2018-01-13T17:55:34.106Z,0.57
2018-01-13T17:58:01.603Z,0.50
2018-01-13T18:00:29.063Z,0.49
2018-01-13T18:02:56.597Z,0.53
2018-01-13T18:05:24.114Z,0.57
2018-01-13T18:07:52.305Z,0.55
2018-01-13T18:10:19.809Z,0.51
2018-01-13T18:12:47.582Z,0.55
2018-01-13T18:15:15.073Z,0.56
2018-01-13T18:17:42.564Z,0.57
2018-01-13T18:20:10.072Z,0.36
2018-01-13T18:22:37.555Z,0.37
2018-01-13T18:25:05.029Z,0.44
2018-01-13T18:27:32.692Z,0.44
2018-01-13T18:30:00.204Z,0.37
2018-01-13T18:32:27.714Z,0.40
2018-01-13T18:34:55.227Z,0.41
2018-01-13T18:37:22.717Z,0.34
2018-01-13T18:42:24.119Z,0.42
2018-01-13T18:44:51.605Z,0.43
2018-01-13T18:47:19.112Z,0.41
2018-01-13T18:49:46.601Z,0.42
2018-01-13T18:52:14.100Z,0.44
2018-01-13T18:54:41.589Z,0.40
2018-01-13T18:57:09.076Z,0.47
2018-01-13T18:59:36.551Z,0.47
2018-01-13T19:02:04.074Z,0.48
2018-01-13T19:04:31.563Z,0.45
2018-01-13T19:06:59.051Z,0.48
2018-01-13T19:09:26.534Z,0.45
2018-01-13T19:11:54.048Z,0.38
2018-01-13T19:14:21.578Z,0.30
2018-01-13T19:16:49.178Z,0.30
2018-01-13T19:19:16.669Z,0.24
2018-01-13T19:21:44.239Z,0.22
2018-01-13T19:24:11.714Z,0.25
2018-01-13T19:26:39.246Z,0.31
2018-01-13T19:29:06.746Z,0.28
2018-01-13T19:31:34.219Z,0.35
2018-01-13T19:34:01.723Z,0.37
2018-01-13T19:36:29.198Z,0.29
2018-01-13T19:38:56.692Z,0.29
2018-01-13T19:41:24.220Z,0.36
2018-01-13T19:43:51.690Z,0.34
2018-01-13T19:46:19.172Z,0.29
2018-01-13T19:48:46.670Z,0.41
2018-01-13T19:51:14.168Z,0.46
2018-01-13T19:53:41.676Z,0.42
2018-01-13T19:56:09.207Z,0.28
2018-01-13T19:58:36.691Z,0.27
2018-01-13T20:01:04.203Z,0.25
2018-01-13T20:03:31.715Z,0.32
2018-01-13T20:05:59.192Z,0.35
2018-01-13T20:08:26.667Z,0.39
2018-01-13T20:10:54.168Z,0.45
2018-01-13T20:13:21.639Z,0.44
2018-01-13T20:15:49.175Z,0.44
2018-01-13T20:18:16.643Z,0.42
2018-01-13T20:20:44.140Z,0.47
2018-01-13T20:23:11.701Z,0.30
2018-01-13T20:25:39.236Z,0.36
2018-01-13T20:28:06.742Z,0.42
2018-01-13T20:30:34.242Z,0.48
2018-01-13T20:33:01.752Z,0.50
2018-01-13T20:35:29.260Z,0.48
2018-01-13T20:37:56.818Z,0.42
2018-01-13T20:40:24.346Z,0.42
2018-01-13T20:42:52.812Z,0.35
2018-01-13T20:45:20.541Z,0.44
2018-01-13T20:47:48.054Z,0.44
2018-01-13T20:50:15.552Z,0.36
2018-01-13T20:52:43.039Z,0.40
2018-01-13T20:55:10.552Z,0.45
2018-01-13T20:57:38.056Z,0.48
2018-01-13T21:00:05.525Z,0.47
2018-01-13T21:02:33.040Z,0.51
2018-01-13T21:05:00.741Z,0.45
2018-01-13T21:07:28.195Z,0.44
2018-01-13T21:09:55.670Z,0.45
2018-01-13T21:12:23.374Z,0.48
2018-01-13T21:14:50.857Z,0.41
2018-01-13T21:17:18.334Z,0.43
2018-01-13T21:19:45.860Z,0.51
2018-01-13T21:22:13.330Z,0.62
2018-01-13T21:24:40.834Z,0.69
2018-01-13T21:27:08.442Z,0.68
2018-01-13T21:29:35.921Z,0.71
2018-01-13T21:32:03.408Z,0.55
2018-01-13T21:34:30.912Z,0.54
2018-01-13T21:36:58.401Z,0.50
2018-01-13T21:39:25.954Z,0.48
2018-01-13T21:41:53.464Z,0.50
2018-01-13T21:44:20.965Z,0.39
2018-01-13T21:46:48.475Z,0.47
2018-01-13T21:49:15.986Z,0.47
2018-01-13T21:51:43.495Z,0.47
2018-01-13T21:54:10.985Z,0.42
2018-01-13T21:56:38.466Z,0.48
2018-01-13T21:59:05.966Z,0.48
2018-01-13T22:01:33.497Z,0.50
2018-01-13T22:04:01.000Z,0.54
2018-01-13T22:06:28.510Z,0.63
2018-01-13T22:08:56.003Z,0.68
2018-01-13T22:11:23.498Z,0.65
2018-01-13T22:13:50.996Z,0.60
2018-01-13T22:16:18.488Z,0.60
2018-01-13T22:18:46.002Z,0.59
2018-01-13T22:21:13.529Z,0.57
2018-01-13T22:23:41.005Z,0.58
2018-01-13T22:26:08.490Z,0.56
2018-01-13T22:28:35.993Z,0.54
2018-01-13T22:31:03.524Z,0.59
2018-01-13T22:33:31.038Z,0.66
2018-01-13T22:35:58.546Z,0.71
2018-01-13T22:38:26.066Z,0.62
2018-01-13T22:40:53.564Z,0.65
2018-01-13T22:43:21.062Z,0.69
2018-01-13T22:45:48.553Z,0.80
2018-01-13T22:48:16.050Z,0.77
2018-01-13T22:50:43.569Z,0.77
2018-01-13T22:53:11.066Z,0.77
2018-01-13T22:55:38.629Z,0.72
2018-01-13T22:58:06.218Z,0.72
2018-01-13T23:03:32.750Z,0.67
2018-01-13T23:06:00.290Z,0.67
2018-01-13T23:08:27.774Z,0.71
2018-01-13T23:10:55.287Z,0.70
2018-01-13T23:13:23.001Z,0.71
2018-01-13T23:15:50.504Z,0.66
2018-01-13T23:18:18.006Z,0.73
2018-01-13T23:20:45.693Z,0.70
2018-01-13T23:23:13.253Z,0.61
2018-01-13T23:25:41.441Z,0.65
2018-01-13T23:28:09.190Z,0.64
2018-01-13T23:30:36.706Z,0.67
2018-01-13T23:33:04.180Z,0.68
2018-01-13T23:35:31.752Z,0.71
2018-01-13T23:37:59.243Z,0.64
2018-01-13T23:40:26.720Z,0.63
2018-01-13T23:42:54.218Z,0.66
2018-01-13T23:45:21.724Z,0.64
2018-01-13T23:47:49.235Z,0.74
2018-01-13T23:50:16.746Z,0.70
2018-01-13T23:52:44.248Z,0.73
2018-01-13T23:55:11.705Z,0.75
2018-01-13T23:57:39.193Z,0.67
